Koksijde, Belgium

10:35 PM CEST on September 01, 2015 (GMT +0200)
Weerstation Tuiniersstraat | | Change Station
CLOSE
Current Station
Personal Weather Station
Location: Veurne, VLAAMS GEWEST
Elevation: 7 ft
Nearby Weather Stations

Elev 7 ft 51.08 °N, 2.67 °E | Updated 22 seconds ago

Clear
Clear
57.7 °F
Feels Like 57.7 °F
N
0.0
Wind Variable Wind from North
Gusts 0.0 mph

Today
High -- | Low -- °F
--% Chance of Precip.
Yesterday
High -- | Low -- °F
Precip. -- in
7:02 AM 8:35 PM
Waning Gibbous, 86% visible
Pressure 30.09 in
Visibility -9999.0 miles
Clouds
Dew Point 57 °F
Humidity 98%
Rainfall 0.13 in
Snow Depth Not available.
UV 0.0 out of 12
Pollen Not available.
Air Quality Not available.
Flu Activity Not available.
METAR LFQQ 012030Z AUTO 27006KT CAVOK 14/12 Q1019
Pressure 30.09 in
Visibility -9999.0 miles
Clouds
Dew Point 57 °F
Humidity 98%
Rainfall 0.13 in
Snow Depth Not available.
UV 0.0 out of 12
Pollen Not available.
Air Quality Not available.
Flu Activity Not available.
METAR LFQQ 012030Z AUTO 27006KT CAVOK 14/12 Q1019

10-Day Weather Forecast

×

Almanac

Astronomy

Sep. 01, 2015 Rise Set
Actual Time
Civil Twilight
Nautical Twilight
Astronomical Twilight
Moon
Length of Visible Light
Length of Day
Tomorrow will be .
, % of the Moon is Illuminated

Today's Extremes

Country Highs Country Lows

Community

WunderPhotos

Upload Photos

1,851,605 photos uploaded!

WunderBlogs® & News

Nearby

Air Quality

  Air Quality AQ Index Pollutant
Not available.

Snow Depth

Station Depth Elevation

Earthquake Activity

City Distance Mag. Time & Date
Minimum magnitude displayed is 2.5.

Coastal Water Temperatures

Place Temperature

Stations

Nearby Weather Stations

Station Location Temp. Windchill Dew Point Humidity Wind Precip. Elev Updated Type